sensor_id;sensor_type;location;lat;lon;timestamp;temperature;humidity
33492;DHT22;20010;51.488;7.232;2022-12-10T00:00:51;0.30;99.90
33492;DHT22;20010;51.488;7.232;2022-12-10T00:03:19;0.30;99.90
33492;DHT22;20010;51.488;7.232;2022-12-10T00:05:47;0.20;99.90
33492;DHT22;20010;51.488;7.232;2022-12-10T00:08:19;0.20;99.90
33492;DHT22;20010;51.488;7.232;2022-12-10T00:10:49;0.20;99.90
33492;DHT22;20010;51.488;7.232;2022-12-10T00:13:16;0.20;99.90
33492;DHT22;20010;51.488;7.232;2022-12-10T00:15:45;0.10;99.90
33492;DHT22;20010;51.488;7.232;2022-12-10T00:18:15;0.20;99.90
33492;DHT22;20010;51.488;7.232;2022-12-10T00:20:44;0.10;99.90
33492;DHT22;20010;51.488;7.232;2022-12-10T00:23:15;0.20;99.90
33492;DHT22;20010;51.488;7.232;2022-12-10T00:25:49;0.10;99.90
33492;DHT22;20010;51.488;7.232;2022-12-10T00:28:23;0.10;99.90
33492;DHT22;20010;51.488;7.232;2022-12-10T00:31:13;0.10;99.90
33492;DHT22;20010;51.488;7.232;2022-12-10T00:33:42;0.20;99.90
33492;DHT22;20010;51.488;7.232;2022-12-10T00:36:22;0.20;99.90
33492;DHT22;20010;51.488;7.232;2022-12-10T00:38:51;0.20;99.90
33492;DHT22;20010;51.488;7.232;2022-12-10T00:41:19;0.20;99.90
33492;DHT22;20010;51.488;7.232;2022-12-10T00:43:48;0.10;99.90
33492;DHT22;20010;51.488;7.232;2022-12-10T00:46:18;0.20;99.90
33492;DHT22;20010;51.488;7.232;2022-12-10T00:48:47;0.10;99.90
33492;DHT22;20010;51.488;7.232;2022-12-10T00:51:18;0.20;99.90
33492;DHT22;20010;51.488;7.232;2022-12-10T00:53:48;0.20;99.90
33492;DHT22;20010;51.488;7.232;2022-12-10T00:56:23;0.20;99.90
33492;DHT22;20010;51.488;7.232;2022-12-10T00:58:52;0.20;99.90
33492;DHT22;20010;51.488;7.232;2022-12-10T01:01:32;0.20;99.90
33492;DHT22;20010;51.488;7.232;2022-12-10T01:04:13;0.20;99.90
33492;DHT22;20010;51.488;7.232;2022-12-10T01:09:26;0.20;99.90
33492;DHT22;20010;51.488;7.232;2022-12-10T01:11:56;0.30;99.90
33492;DHT22;20010;51.488;7.232;2022-12-10T01:14:26;0.30;99.90
33492;DHT22;20010;51.488;7.232;2022-12-10T01:16:55;0.20;99.90
33492;DHT22;20010;51.488;7.232;2022-12-10T01:19:22;0.10;99.90
33492;DHT22;20010;51.488;7.232;2022-12-10T01:21:50;0.20;99.90
33492;DHT22;20010;51.488;7.232;2022-12-10T01:24:17;0.20;99.90
33492;DHT22;20010;51.488;7.232;2022-12-10T01:26:44;0.20;99.90
33492;DHT22;20010;51.488;7.232;2022-12-10T01:29:14;0.20;99.90
33492;DHT22;20010;51.488;7.232;2022-12-10T01:31:41;0.20;99.90
33492;DHT22;20010;51.488;7.232;2022-12-10T01:34:11;0.20;99.90
33492;DHT22;20010;51.488;7.232;2022-12-10T01:36:40;0.20;99.90
33492;DHT22;20010;51.488;7.232;2022-12-10T01:39:12;0.20;99.90
33492;DHT22;20010;51.488;7.232;2022-12-10T01:41:53;0.20;99.90
33492;DHT22;20010;51.488;7.232;2022-12-10T01:46:49;0.30;99.90
33492;DHT22;20010;51.488;7.232;2022-12-10T01:49:22;0.30;99.90
33492;DHT22;20010;51.488;7.232;2022-12-10T01:51:53;0.30;99.90
33492;DHT22;20010;51.488;7.232;2022-12-10T01:54:32;0.20;99.90
33492;DHT22;20010;51.488;7.232;2022-12-10T01:57:43;0.30;99.90
33492;DHT22;20010;51.488;7.232;2022-12-10T02:00:00;0.30;99.90
33492;DHT22;20010;51.488;7.232;2022-12-10T02:02:43;0.30;99.90
33492;DHT22;20010;51.488;7.232;2022-12-10T02:08:10;0.30;99.90
33492;DHT22;20010;51.488;7.232;2022-12-10T02:13:11;0.40;99.90
33492;DHT22;20010;51.488;7.232;2022-12-10T02:15:46;0.30;99.90
33492;DHT22;20010;51.488;7.232;2022-12-10T02:21:00;0.30;99.90
33492;DHT22;20010;51.488;7.232;2022-12-10T02:23:57;0.40;99.90
33492;DHT22;20010;51.488;7.232;2022-12-10T02:26:36;0.40;99.90
33492;DHT22;20010;51.488;7.232;2022-12-10T02:31:53;0.50;99.90
33492;DHT22;20010;51.488;7.232;2022-12-10T02:34:23;0.50;99.90
33492;DHT22;20010;51.488;7.232;2022-12-10T02:36:53;0.40;99.90
33492;DHT22;20010;51.488;7.232;2022-12-10T02:39:26;0.50;99.90
33492;DHT22;20010;51.488;7.232;2022-12-10T02:41:54;0.40;99.90
33492;DHT22;20010;51.488;7.232;2022-12-10T02:44:23;0.40;99.90
33492;DHT22;20010;51.488;7.232;2022-12-10T02:46:54;0.40;99.90
33492;DHT22;20010;51.488;7.232;2022-12-10T02:49:21;0.40;99.90
33492;DHT22;20010;51.488;7.232;2022-12-10T02:51:50;0.40;99.90
33492;DHT22;20010;51.488;7.232;2022-12-10T02:54:39;0.40;99.90
33492;DHT22;20010;51.488;7.232;2022-12-10T02:57:23;0.40;99.90
33492;DHT22;20010;51.488;7.232;2022-12-10T03:00:15;0.40;99.90
33492;DHT22;20010;51.488;7.232;2022-12-10T03:08:17;0.50;99.90
33492;DHT22;20010;51.488;7.232;2022-12-10T03:11:12;0.50;99.90
33492;DHT22;20010;51.488;7.232;2022-12-10T03:16:39;0.50;99.90
33492;DHT22;20010;51.488;7.232;2022-12-10T03:19:11;0.50;99.90
33492;DHT22;20010;51.488;7.232;2022-12-10T03:21:41;0.50;99.90
33492;DHT22;20010;51.488;7.232;2022-12-10T03:24:11;0.60;99.90
33492;DHT22;20010;51.488;7.232;2022-12-10T03:26:39;0.60;99.90
33492;DHT22;20010;51.488;7.232;2022-12-10T03:29:21;0.60;99.90
33492;DHT22;20010;51.488;7.232;2022-12-10T03:31:51;0.60;99.90
33492;DHT22;20010;51.488;7.232;2022-12-10T03:34:19;0.60;99.90
33492;DHT22;20010;51.488;7.232;2022-12-10T03:36:47;0.60;99.90
33492;DHT22;20010;51.488;7.232;2022-12-10T03:39:15;0.60;99.90
33492;DHT22;20010;51.488;7.232;2022-12-10T03:41:42;0.60;99.90
33492;DHT22;20010;51.488;7.232;2022-12-10T03:44:09;0.70;99.90
33492;DHT22;20010;51.488;7.232;2022-12-10T03:46:36;0.60;99.90
33492;DHT22;20010;51.488;7.232;2022-12-10T03:49:03;0.60;99.90
33492;DHT22;20010;51.488;7.232;2022-12-10T03:51:30;0.60;99.90
33492;DHT22;20010;51.488;7.232;2022-12-10T03:53:57;0.50;99.90
33492;DHT22;20010;51.488;7.232;2022-12-10T03:56:23;0.60;99.90
33492;DHT22;20010;51.488;7.232;2022-12-10T03:58:50;0.60;99.90
33492;DHT22;20010;51.488;7.232;2022-12-10T04:01:17;0.60;99.90
33492;DHT22;20010;51.488;7.232;2022-12-10T04:03:44;0.60;99.90
33492;DHT22;20010;51.488;7.232;2022-12-10T04:06:15;0.60;99.90
33492;DHT22;20010;51.488;7.232;2022-12-10T04:08:42;0.60;99.90
33492;DHT22;20010;51.488;7.232;2022-12-10T04:11:10;0.60;99.90
33492;DHT22;20010;51.488;7.232;2022-12-10T04:13:38;0.60;99.90
33492;DHT22;20010;51.488;7.232;2022-12-10T04:16:25;0.60;99.90
33492;DHT22;20010;51.488;7.232;2022-12-10T04:19:00;0.60;99.90
33492;DHT22;20010;51.488;7.232;2022-12-10T04:21:28;0.60;99.90
33492;DHT22;20010;51.488;7.232;2022-12-10T04:24:15;0.60;99.90
33492;DHT22;20010;51.488;7.232;2022-12-10T04:27:05;0.60;99.90
33492;DHT22;20010;51.488;7.232;2022-12-10T04:29:33;0.60;99.90
33492;DHT22;20010;51.488;7.232;2022-12-10T04:32:00;0.60;99.90
33492;DHT22;20010;51.488;7.232;2022-12-10T04:34:26;0.70;99.90
33492;DHT22;20010;51.488;7.232;2022-12-10T04:36:53;0.70;99.90
33492;DHT22;20010;51.488;7.232;2022-12-10T04:39:21;0.70;99.90
33492;DHT22;20010;51.488;7.232;2022-12-10T04:41:48;0.70;99.90
33492;DHT22;20010;51.488;7.232;2022-12-10T04:44:16;0.70;99.90
33492;DHT22;20010;51.488;7.232;2022-12-10T04:46:43;0.70;99.90
33492;DHT22;20010;51.488;7.232;2022-12-10T04:49:10;0.80;99.90
33492;DHT22;20010;51.488;7.232;2022-12-10T04:51:38;0.70;99.90
33492;DHT22;20010;51.488;7.232;2022-12-10T04:54:04;0.70;99.90
33492;DHT22;20010;51.488;7.232;2022-12-10T04:56:32;0.70;99.90
33492;DHT22;20010;51.488;7.232;2022-12-10T04:59:00;0.70;99.90
33492;DHT22;20010;51.488;7.232;2022-12-10T05:01:27;0.80;99.90
33492;DHT22;20010;51.488;7.232;2022-12-10T05:03:54;0.80;99.90
33492;DHT22;20010;51.488;7.232;2022-12-10T05:06:24;0.70;99.90
33492;DHT22;20010;51.488;7.232;2022-12-10T05:08:51;0.70;99.90
33492;DHT22;20010;51.488;7.232;2022-12-10T05:11:19;0.70;99.90
33492;DHT22;20010;51.488;7.232;2022-12-10T05:13:47;0.60;99.90
33492;DHT22;20010;51.488;7.232;2022-12-10T05:16:15;0.60;99.90
33492;DHT22;20010;51.488;7.232;2022-12-10T05:18:43;0.60;99.90
33492;DHT22;20010;51.488;7.232;2022-12-10T05:21:12;0.60;99.90
33492;DHT22;20010;51.488;7.232;2022-12-10T05:23:40;0.50;99.90
33492;DHT22;20010;51.488;7.232;2022-12-10T05:26:14;0.60;99.90
33492;DHT22;20010;51.488;7.232;2022-12-10T05:28:43;0.60;99.90
33492;DHT22;20010;51.488;7.232;2022-12-10T05:31:21;0.60;99.90
33492;DHT22;20010;51.488;7.232;2022-12-10T05:33:49;0.60;99.90
33492;DHT22;20010;51.488;7.232;2022-12-10T05:36:18;0.60;99.90
33492;DHT22;20010;51.488;7.232;2022-12-10T05:38:46;0.60;99.90
33492;DHT22;20010;51.488;7.232;2022-12-10T05:41:16;0.50;99.90
33492;DHT22;20010;51.488;7.232;2022-12-10T05:43:44;0.50;99.90
33492;DHT22;20010;51.488;7.232;2022-12-10T05:46:19;0.50;99.90
33492;DHT22;20010;51.488;7.232;2022-12-10T05:48:47;0.50;99.90
33492;DHT22;20010;51.488;7.232;2022-12-10T05:51:16;0.50;99.90
33492;DHT22;20010;51.488;7.232;2022-12-10T05:53:44;0.40;99.90
33492;DHT22;20010;51.488;7.232;2022-12-10T05:56:13;0.30;99.90
33492;DHT22;20010;51.488;7.232;2022-12-10T05:58:42;0.30;99.90
33492;DHT22;20010;51.488;7.232;2022-12-10T06:01:18;0.20;99.90
33492;DHT22;20010;51.488;7.232;2022-12-10T06:03:45;0.20;99.90
33492;DHT22;20010;51.488;7.232;2022-12-10T06:06:13;0.10;99.90
33492;DHT22;20010;51.488;7.232;2022-12-10T06:08:40;0.00;99.90
33492;DHT22;20010;51.488;7.232;2022-12-10T06:11:09;0.00;99.90
33492;DHT22;20010;51.488;7.232;2022-12-10T06:13:37;-0.10;99.90
33492;DHT22;20010;51.488;7.232;2022-12-10T06:16:08;-0.10;99.90
33492;DHT22;20010;51.488;7.232;2022-12-10T06:18:36;-0.10;99.90
33492;DHT22;20010;51.488;7.232;2022-12-10T06:21:12;-0.10;99.90
33492;DHT22;20010;51.488;7.232;2022-12-10T06:23:40;-0.10;99.90
33492;DHT22;20010;51.488;7.232;2022-12-10T06:26:09;-0.20;99.90
33492;DHT22;20010;51.488;7.232;2022-12-10T06:28:37;-0.20;99.90
33492;DHT22;20010;51.488;7.232;2022-12-10T06:31:04;-0.20;99.90
33492;DHT22;20010;51.488;7.232;2022-12-10T06:33:31;-0.20;99.90
33492;DHT22;20010;51.488;7.232;2022-12-10T06:35:58;-0.30;99.90
33492;DHT22;20010;51.488;7.232;2022-12-10T06:38:25;-0.30;99.90
33492;DHT22;20010;51.488;7.232;2022-12-10T06:40:52;-0.30;99.90
33492;DHT22;20010;51.488;7.232;2022-12-10T06:43:19;-0.40;99.90
33492;DHT22;20010;51.488;7.232;2022-12-10T06:45:46;-0.40;99.90
33492;DHT22;20010;51.488;7.232;2022-12-10T06:48:12;-0.40;99.90
33492;DHT22;20010;51.488;7.232;2022-12-10T06:50:39;-0.50;99.90
33492;DHT22;20010;51.488;7.232;2022-12-10T06:53:07;-0.50;99.90
33492;DHT22;20010;51.488;7.232;2022-12-10T06:55:36;-0.50;99.90
33492;DHT22;20010;51.488;7.232;2022-12-10T06:58:05;-0.50;99.90
33492;DHT22;20010;51.488;7.232;2022-12-10T07:00:31;-0.50;99.90
33492;DHT22;20010;51.488;7.232;2022-12-10T07:03:00;-0.50;99.90
33492;DHT22;20010;51.488;7.232;2022-12-10T07:05:26;-0.50;99.90
33492;DHT22;20010;51.488;7.232;2022-12-10T07:07:53;-0.50;99.90
33492;DHT22;20010;51.488;7.232;2022-12-10T07:10:20;-0.60;99.90
33492;DHT22;20010;51.488;7.232;2022-12-10T07:12:47;-0.60;99.90
33492;DHT22;20010;51.488;7.232;2022-12-10T07:15:14;-0.60;99.90
33492;DHT22;20010;51.488;7.232;2022-12-10T07:17:41;-0.70;99.90
33492;DHT22;20010;51.488;7.232;2022-12-10T07:20:08;-0.70;99.90
33492;DHT22;20010;51.488;7.232;2022-12-10T07:22:35;-0.70;99.90
33492;DHT22;20010;51.488;7.232;2022-12-10T07:25:02;-0.80;99.90
33492;DHT22;20010;51.488;7.232;2022-12-10T07:27:29;-0.80;99.90
33492;DHT22;20010;51.488;7.232;2022-12-10T07:29:57;-0.80;99.90
33492;DHT22;20010;51.488;7.232;2022-12-10T07:32:26;-0.70;99.90
33492;DHT22;20010;51.488;7.232;2022-12-10T07:34:53;-0.80;99.90
33492;DHT22;20010;51.488;7.232;2022-12-10T07:37:20;-0.80;99.90
33492;DHT22;20010;51.488;7.232;2022-12-10T07:39:46;-0.70;99.90
33492;DHT22;20010;51.488;7.232;2022-12-10T07:42:13;-0.80;99.90
33492;DHT22;20010;51.488;7.232;2022-12-10T07:44:40;-0.70;99.90
33492;DHT22;20010;51.488;7.232;2022-12-10T07:47:14;-0.80;99.90
33492;DHT22;20010;51.488;7.232;2022-12-10T07:49:41;-0.80;99.90
33492;DHT22;20010;51.488;7.232;2022-12-10T07:52:08;-0.80;99.90
33492;DHT22;20010;51.488;7.232;2022-12-10T07:54:35;-0.70;99.90
33492;DHT22;20010;51.488;7.232;2022-12-10T07:57:02;-0.80;99.90
33492;DHT22;20010;51.488;7.232;2022-12-10T07:59:29;-0.80;99.90
33492;DHT22;20010;51.488;7.232;2022-12-10T08:01:57;-0.80;99.90
33492;DHT22;20010;51.488;7.232;2022-12-10T08:04:29;-0.70;99.90
33492;DHT22;20010;51.488;7.232;2022-12-10T08:06:56;-0.80;99.90
33492;DHT22;20010;51.488;7.232;2022-12-10T08:09:23;-0.70;99.90
33492;DHT22;20010;51.488;7.232;2022-12-10T08:11:50;-0.70;99.90
33492;DHT22;20010;51.488;7.232;2022-12-10T08:14:17;-0.70;99.90
33492;DHT22;20010;51.488;7.232;2022-12-10T08:16:44;-0.70;99.90
33492;DHT22;20010;51.488;7.232;2022-12-10T08:19:11;-0.70;99.90
33492;DHT22;20010;51.488;7.232;2022-12-10T08:21:45;-0.70;99.90
33492;DHT22;20010;51.488;7.232;2022-12-10T08:24:11;-0.70;99.90
33492;DHT22;20010;51.488;7.232;2022-12-10T08:26:38;-0.60;99.90
33492;DHT22;20010;51.488;7.232;2022-12-10T08:29:05;-0.60;99.90
33492;DHT22;20010;51.488;7.232;2022-12-10T08:31:32;-0.60;99.90
33492;DHT22;20010;51.488;7.232;2022-12-10T08:34:04;-0.60;99.90
33492;DHT22;20010;51.488;7.232;2022-12-10T08:36:31;-0.70;99.90
33492;DHT22;20010;51.488;7.232;2022-12-10T08:38:58;-0.70;99.90
33492;DHT22;20010;51.488;7.232;2022-12-10T08:41:24;-0.70;99.90
33492;DHT22;20010;51.488;7.232;2022-12-10T08:43:52;-0.80;99.90
33492;DHT22;20010;51.488;7.232;2022-12-10T08:46:19;-0.90;99.90
33492;DHT22;20010;51.488;7.232;2022-12-10T08:48:47;-0.90;99.90
33492;DHT22;20010;51.488;7.232;2022-12-10T08:51:15;-0.90;99.90
33492;DHT22;20010;51.488;7.232;2022-12-10T08:53:43;-1.10;99.90
33492;DHT22;20010;51.488;7.232;2022-12-10T08:56:11;-1.20;99.90
33492;DHT22;20010;51.488;7.232;2022-12-10T08:58:38;-1.10;99.90
33492;DHT22;20010;51.488;7.232;2022-12-10T09:01:14;-1.20;99.90
33492;DHT22;20010;51.488;7.232;2022-12-10T09:03:41;-1.20;99.90
33492;DHT22;20010;51.488;7.232;2022-12-10T09:06:11;-1.20;99.90
33492;DHT22;20010;51.488;7.232;2022-12-10T09:08:38;-1.20;99.90
33492;DHT22;20010;51.488;7.232;2022-12-10T09:11:10;-1.20;99.90
33492;DHT22;20010;51.488;7.232;2022-12-10T09:13:38;-1.20;99.90
33492;DHT22;20010;51.488;7.232;2022-12-10T09:16:05;-1.20;99.90
33492;DHT22;20010;51.488;7.232;2022-12-10T09:18:32;-1.30;99.90
33492;DHT22;20010;51.488;7.232;2022-12-10T09:20:59;-1.30;99.90
33492;DHT22;20010;51.488;7.232;2022-12-10T09:23:26;-1.20;99.90
33492;DHT22;20010;51.488;7.232;2022-12-10T09:25:52;-1.20;99.90
33492;DHT22;20010;51.488;7.232;2022-12-10T09:28:19;-1.20;99.90
33492;DHT22;20010;51.488;7.232;2022-12-10T09:30:55;-1.20;99.90
33492;DHT22;20010;51.488;7.232;2022-12-10T09:33:22;-1.20;99.90
33492;DHT22;20010;51.488;7.232;2022-12-10T09:35:49;-1.20;99.90
33492;DHT22;20010;51.488;7.232;2022-12-10T09:38:15;-1.20;99.90
33492;DHT22;20010;51.488;7.232;2022-12-10T09:43:17;-1.20;99.90
33492;DHT22;20010;51.488;7.232;2022-12-10T09:51:37;-1.20;99.90
33492;DHT22;20010;51.488;7.232;2022-12-10T09:56:50;-1.20;99.90
33492;DHT22;20010;51.488;7.232;2022-12-10T09:59:31;-1.10;99.90
33492;DHT22;20010;51.488;7.232;2022-12-10T10:02:21;-1.10;99.90
33492;DHT22;20010;51.488;7.232;2022-12-10T10:05:18;-1.10;99.90
33492;DHT22;20010;51.488;7.232;2022-12-10T10:07:45;-1.10;99.90
33492;DHT22;20010;51.488;7.232;2022-12-10T10:10:26;-1.00;99.90
33492;DHT22;20010;51.488;7.232;2022-12-10T10:13:18;-1.00;99.90
33492;DHT22;20010;51.488;7.232;2022-12-10T10:15:44;-1.00;99.90
33492;DHT22;20010;51.488;7.232;2022-12-10T10:18:35;-0.90;99.90
33492;DHT22;20010;51.488;7.232;2022-12-10T10:21:14;-0.90;99.90
33492;DHT22;20010;51.488;7.232;2022-12-10T10:23:44;-0.90;99.90
33492;DHT22;20010;51.488;7.232;2022-12-10T10:26:11;-0.90;99.90
33492;DHT22;20010;51.488;7.232;2022-12-10T10:28:40;-0.80;99.90
33492;DHT22;20010;51.488;7.232;2022-12-10T10:31:22;-0.70;99.90
33492;DHT22;20010;51.488;7.232;2022-12-10T10:34:02;-0.80;99.90
33492;DHT22;20010;51.488;7.232;2022-12-10T10:36:32;-0.70;99.90
33492;DHT22;20010;51.488;7.232;2022-12-10T10:39:30;-0.70;99.90
33492;DHT22;20010;51.488;7.232;2022-12-10T10:41:59;-0.70;99.90
33492;DHT22;20010;51.488;7.232;2022-12-10T10:44:37;-0.70;99.90
33492;DHT22;20010;51.488;7.232;2022-12-10T10:47:29;-0.70;99.90
33492;DHT22;20010;51.488;7.232;2022-12-10T10:50:01;-0.70;99.90
33492;DHT22;20010;51.488;7.232;2022-12-10T10:52:34;-0.70;99.90
33492;DHT22;20010;51.488;7.232;2022-12-10T10:55:02;-0.60;99.90
33492;DHT22;20010;51.488;7.232;2022-12-10T10:57:36;-0.60;99.90
33492;DHT22;20010;51.488;7.232;2022-12-10T11:00:20;-0.50;99.90
33492;DHT22;20010;51.488;7.232;2022-12-10T11:02:51;-0.50;99.90
33492;DHT22;20010;51.488;7.232;2022-12-10T11:08:03;-0.50;99.90
33492;DHT22;20010;51.488;7.232;2022-12-10T11:10:31;-0.50;99.90
33492;DHT22;20010;51.488;7.232;2022-12-10T11:12:58;-0.50;99.90
33492;DHT22;20010;51.488;7.232;2022-12-10T11:18:03;-0.40;99.90
33492;DHT22;20010;51.488;7.232;2022-12-10T11:20:32;-0.30;99.90
33492;DHT22;20010;51.488;7.232;2022-12-10T11:23:12;-0.30;99.90
33492;DHT22;20010;51.488;7.232;2022-12-10T11:25:57;-0.20;99.90
33492;DHT22;20010;51.488;7.232;2022-12-10T11:37:00;-0.20;99.90
33492;DHT22;20010;51.488;7.232;2022-12-10T11:44:50;-0.10;99.90
33492;DHT22;20010;51.488;7.232;2022-12-10T11:55:38;-0.10;99.90
33492;DHT22;20010;51.488;7.232;2022-12-10T11:58:20;-0.10;99.90
33492;DHT22;20010;51.488;7.232;2022-12-10T12:01:46;-0.10;99.90
33492;DHT22;20010;51.488;7.232;2022-12-10T12:07:05;0.00;99.90
33492;DHT22;20010;51.488;7.232;2022-12-10T12:13:02;0.10;99.90
33492;DHT22;20010;51.488;7.232;2022-12-10T12:15:47;0.10;99.90
33492;DHT22;20010;51.488;7.232;2022-12-10T12:18:34;0.10;99.90
33492;DHT22;20010;51.488;7.232;2022-12-10T12:21:07;0.10;99.90
33492;DHT22;20010;51.488;7.232;2022-12-10T12:24:09;0.00;99.90
33492;DHT22;20010;51.488;7.232;2022-12-10T12:26:41;0.00;99.90
33492;DHT22;20010;51.488;7.232;2022-12-10T12:32:20;0.00;99.90
33492;DHT22;20010;51.488;7.232;2022-12-10T12:34:54;0.00;99.90
33492;DHT22;20010;51.488;7.232;2022-12-10T12:37:38;0.00;99.90
33492;DHT22;20010;51.488;7.232;2022-12-10T12:40:28;0.10;99.90
33492;DHT22;20010;51.488;7.232;2022-12-10T12:42:59;0.10;99.90
33492;DHT22;20010;51.488;7.232;2022-12-10T12:45:48;0.10;99.90
33492;DHT22;20010;51.488;7.232;2022-12-10T12:48:42;0.00;99.90
33492;DHT22;20010;51.488;7.232;2022-12-10T12:53:37;0.00;99.90
33492;DHT22;20010;51.488;7.232;2022-12-10T13:04:08;0.10;99.90
33492;DHT22;20010;51.488;7.232;2022-12-10T13:06:36;0.10;99.90
33492;DHT22;20010;51.488;7.232;2022-12-10T13:11:41;0.10;99.90
33492;DHT22;20010;51.488;7.232;2022-12-10T13:33:09;0.10;99.90
33492;DHT22;20010;51.488;7.232;2022-12-10T13:36:03;0.20;99.90
33492;DHT22;20010;51.488;7.232;2022-12-10T13:50:05;0.20;99.90
33492;DHT22;20010;51.488;7.232;2022-12-10T14:00:48;0.20;99.90
33492;DHT22;20010;51.488;7.232;2022-12-10T14:06:23;0.10;99.90
33492;DHT22;20010;51.488;7.232;2022-12-10T14:09:27;0.10;99.90
33492;DHT22;20010;51.488;7.232;2022-12-10T14:12:10;0.20;99.90
33492;DHT22;20010;51.488;7.232;2022-12-10T14:14:44;0.20;99.90
33492;DHT22;20010;51.488;7.232;2022-12-10T14:17:20;0.20;99.90
33492;DHT22;20010;51.488;7.232;2022-12-10T14:19:53;0.20;99.90
33492;DHT22;20010;51.488;7.232;2022-12-10T14:22:34;0.10;99.90
33492;DHT22;20010;51.488;7.232;2022-12-10T14:25:04;0.10;99.90
33492;DHT22;20010;51.488;7.232;2022-12-10T14:27:33;0.10;99.90
33492;DHT22;20010;51.488;7.232;2022-12-10T14:32:43;0.10;99.90
33492;DHT22;20010;51.488;7.232;2022-12-10T14:35:16;0.10;99.90
33492;DHT22;20010;51.488;7.232;2022-12-10T14:37:52;0.10;99.90
33492;DHT22;20010;51.488;7.232;2022-12-10T14:40:30;0.10;99.90
33492;DHT22;20010;51.488;7.232;2022-12-10T14:43:13;0.10;99.90
33492;DHT22;20010;51.488;7.232;2022-12-10T14:45:47;0.10;99.90
33492;DHT22;20010;51.488;7.232;2022-12-10T14:48:15;0.10;99.90
33492;DHT22;20010;51.488;7.232;2022-12-10T14:50:44;0.10;99.90
33492;DHT22;20010;51.488;7.232;2022-12-10T14:53:24;0.10;99.90
33492;DHT22;20010;51.488;7.232;2022-12-10T14:56:02;0.10;99.90
33492;DHT22;20010;51.488;7.232;2022-12-10T14:58:39;0.00;99.90
33492;DHT22;20010;51.488;7.232;2022-12-10T15:01:22;0.00;99.90
33492;DHT22;20010;51.488;7.232;2022-12-10T15:03:52;0.00;99.90
33492;DHT22;20010;51.488;7.232;2022-12-10T15:06:20;0.00;99.90
33492;DHT22;20010;51.488;7.232;2022-12-10T15:08:47;0.00;99.90
33492;DHT22;20010;51.488;7.232;2022-12-10T15:11:17;0.00;99.90
33492;DHT22;20010;51.488;7.232;2022-12-10T15:13:46;0.00;99.90
33492;DHT22;20010;51.488;7.232;2022-12-10T15:16:27;0.00;99.90
33492;DHT22;20010;51.488;7.232;2022-12-10T15:18:55;0.00;99.90
33492;DHT22;20010;51.488;7.232;2022-12-10T15:21:24;0.00;99.90
33492;DHT22;20010;51.488;7.232;2022-12-10T15:24:11;0.00;99.90
33492;DHT22;20010;51.488;7.232;2022-12-10T15:26:43;0.00;99.90
33492;DHT22;20010;51.488;7.232;2022-12-10T15:32:04;0.00;99.90
33492;DHT22;20010;51.488;7.232;2022-12-10T15:34:56;0.00;99.90
33492;DHT22;20010;51.488;7.232;2022-12-10T15:37:26;0.00;99.90
33492;DHT22;20010;51.488;7.232;2022-12-10T15:39:56;0.00;99.90
33492;DHT22;20010;51.488;7.232;2022-12-10T15:42:40;0.00;99.90
33492;DHT22;20010;51.488;7.232;2022-12-10T15:45:37;0.00;99.90
33492;DHT22;20010;51.488;7.232;2022-12-10T15:48:08;0.00;99.90
33492;DHT22;20010;51.488;7.232;2022-12-10T15:50:40;0.00;99.90
33492;DHT22;20010;51.488;7.232;2022-12-10T15:53:14;0.00;99.90
33492;DHT22;20010;51.488;7.232;2022-12-10T15:55:42;0.00;99.90
33492;DHT22;20010;51.488;7.232;2022-12-10T15:58:11;0.00;99.90
33492;DHT22;20010;51.488;7.232;2022-12-10T16:00:39;0.00;99.90
33492;DHT22;20010;51.488;7.232;2022-12-10T16:03:11;0.00;99.90
33492;DHT22;20010;51.488;7.232;2022-12-10T16:05:40;0.00;99.90
33492;DHT22;20010;51.488;7.232;2022-12-10T16:08:22;0.00;99.90
33492;DHT22;20010;51.488;7.232;2022-12-10T16:10:52;0.00;99.90
33492;DHT22;20010;51.488;7.232;2022-12-10T16:13:26;0.00;99.90
33492;DHT22;20010;51.488;7.232;2022-12-10T16:15:58;0.00;99.90
33492;DHT22;20010;51.488;7.232;2022-12-10T16:18:26;0.00;99.90
33492;DHT22;20010;51.488;7.232;2022-12-10T16:20:59;0.00;99.90
33492;DHT22;20010;51.488;7.232;2022-12-10T16:23:27;0.00;99.90
33492;DHT22;20010;51.488;7.232;2022-12-10T16:25:53;0.00;99.90
33492;DHT22;20010;51.488;7.232;2022-12-10T16:28:22;0.00;99.90
33492;DHT22;20010;51.488;7.232;2022-12-10T16:30:51;0.10;99.90
33492;DHT22;20010;51.488;7.232;2022-12-10T16:33:21;0.00;99.90
33492;DHT22;20010;51.488;7.232;2022-12-10T16:35:50;0.10;99.90
33492;DHT22;20010;51.488;7.232;2022-12-10T16:38:18;0.00;99.90
33492;DHT22;20010;51.488;7.232;2022-12-10T16:40:46;0.10;99.90
33492;DHT22;20010;51.488;7.232;2022-12-10T16:43:25;0.10;99.90
33492;DHT22;20010;51.488;7.232;2022-12-10T16:45:53;0.10;99.90
33492;DHT22;20010;51.488;7.232;2022-12-10T16:48:21;0.00;99.90
33492;DHT22;20010;51.488;7.232;2022-12-10T16:50:50;0.10;99.90
33492;DHT22;20010;51.488;7.232;2022-12-10T16:53:23;0.00;99.90
33492;DHT22;20010;51.488;7.232;2022-12-10T16:55:52;0.10;99.90
33492;DHT22;20010;51.488;7.232;2022-12-10T16:58:19;0.10;99.90
33492;DHT22;20010;51.488;7.232;2022-12-10T17:00:49;0.10;99.90
33492;DHT22;20010;51.488;7.232;2022-12-10T17:03:18;0.10;99.90
33492;DHT22;20010;51.488;7.232;2022-12-10T17:05:59;0.10;99.90
33492;DHT22;20010;51.488;7.232;2022-12-10T17:08:27;0.10;99.90
33492;DHT22;20010;51.488;7.232;2022-12-10T17:10:55;0.10;99.90
33492;DHT22;20010;51.488;7.232;2022-12-10T17:13:45;0.10;99.90
33492;DHT22;20010;51.488;7.232;2022-12-10T17:16:14;0.10;99.90
33492;DHT22;20010;51.488;7.232;2022-12-10T17:18:42;0.10;99.90
33492;DHT22;20010;51.488;7.232;2022-12-10T17:21:09;0.10;99.90
33492;DHT22;20010;51.488;7.232;2022-12-10T17:23:35;0.10;99.90
33492;DHT22;20010;51.488;7.232;2022-12-10T17:26:02;0.10;99.90
33492;DHT22;20010;51.488;7.232;2022-12-10T17:28:30;0.10;99.90
33492;DHT22;20010;51.488;7.232;2022-12-10T17:30:57;0.10;99.90
33492;DHT22;20010;51.488;7.232;2022-12-10T17:33:24;0.10;99.90
33492;DHT22;20010;51.488;7.232;2022-12-10T17:35:52;0.10;99.90
33492;DHT22;20010;51.488;7.232;2022-12-10T17:38:25;0.10;99.90
33492;DHT22;20010;51.488;7.232;2022-12-10T17:40:53;0.20;99.90
33492;DHT22;20010;51.488;7.232;2022-12-10T17:43:20;0.10;99.90
33492;DHT22;20010;51.488;7.232;2022-12-10T17:45:47;0.10;99.90
33492;DHT22;20010;51.488;7.232;2022-12-10T17:48:16;0.10;99.90
33492;DHT22;20010;51.488;7.232;2022-12-10T17:50:44;0.10;99.90
33492;DHT22;20010;51.488;7.232;2022-12-10T17:53:12;0.10;99.90
33492;DHT22;20010;51.488;7.232;2022-12-10T17:55:53;0.10;99.90
33492;DHT22;20010;51.488;7.232;2022-12-10T17:58:20;0.20;99.90
33492;DHT22;20010;51.488;7.232;2022-12-10T18:00:49;0.10;99.90
33492;DHT22;20010;51.488;7.232;2022-12-10T18:03:17;0.10;99.90
33492;DHT22;20010;51.488;7.232;2022-12-10T18:05:44;0.10;99.90
33492;DHT22;20010;51.488;7.232;2022-12-10T18:08:13;0.10;99.90
33492;DHT22;20010;51.488;7.232;2022-12-10T18:10:40;0.10;99.90
33492;DHT22;20010;51.488;7.232;2022-12-10T18:13:07;0.20;99.90
33492;DHT22;20010;51.488;7.232;2022-12-10T18:15:34;0.20;99.90
33492;DHT22;20010;51.488;7.232;2022-12-10T18:18:02;0.10;99.90
33492;DHT22;20010;51.488;7.232;2022-12-10T18:20:32;0.10;99.90